Terminal Aerodrome Forecast
Issued by NWS

Home | Current Version | Previous Version | Text Only | Print | Product List | Glossary On
Versions: 1 2 3 4 5 6 7 8 9 10 11 12 13 14 15 16 17 18 19 20 21 22 23 24 25 26 27 28 29 30 31 32 33 34 35 36 37 38 39 40 41 42 43 44 45 46 47 48
000
FTUS45 KBOU 300540
TAFBJC
TAF
KBJC 300540Z 3006/3106 VRB04KT P6SM FEW120 BKN200
     FM301000 22006KT P6SM SCT120 BKN200
     FM301600 26007KT P6SM FEW060 SCT080 BKN120
     FM302000 34007KT P6SM SCT050 BKN070 OVC100
     FM310200 02006KT P6SM VCSH SCT030 BKN040 OVC060
      TEMPO 3103/3106 -SHSN BKN020 OVC030=

USA.gov is the U.S. government's official web portal to all federal, state and local government web resources and services.